createdAt,value
2022-09-04T00:02:10.755Z,6.38
2022-09-04T00:04:43.309Z,5.95
2022-09-04T00:07:35.286Z,6.60
2022-09-04T00:10:30.571Z,4.22
2022-09-04T00:15:39.568Z,5.18
2022-09-04T00:18:12.680Z,4.75
2022-09-04T00:20:50.617Z,5.95
2022-09-04T00:23:27.131Z,5.75
2022-09-04T00:26:07.811Z,7.50
2022-09-04T00:28:41.507Z,7.57
2022-09-04T00:31:26.992Z,4.97
2022-09-04T00:34:20.691Z,4.88
2022-09-04T00:36:52.679Z,4.50
2022-09-04T00:39:24.574Z,5.47
2022-09-04T00:42:12.766Z,5.97
2022-09-04T00:45:16.747Z,6.57
2022-09-04T00:48:09.082Z,3.53
2022-09-04T00:51:11.384Z,5.53
2022-09-04T00:54:01.977Z,5.55
2022-09-04T00:57:19.769Z,6.78
2022-09-04T01:00:12.643Z,5.53
2022-09-04T01:03:07.811Z,6.28
2022-09-04T01:05:59.782Z,6.40
2022-09-04T01:08:42.089Z,8.18
2022-09-04T01:11:50.725Z,5.40
2022-09-04T01:14:40.334Z,7.72
2022-09-04T01:17:27.772Z,7.25
2022-09-04T01:20:04.808Z,5.22
2022-09-04T01:22:55.085Z,8.80
2022-09-04T01:25:32.943Z,10.38
2022-09-04T01:28:22.244Z,6.10
2022-09-04T01:31:04.668Z,5.90
2022-09-04T01:33:40.812Z,11.63
2022-09-04T01:36:20.105Z,8.88
2022-09-04T01:38:54.599Z,5.82
2022-09-04T01:43:52.793Z,8.60
2022-09-04T01:46:36.949Z,7.35
2022-09-04T01:49:23.331Z,8.50
2022-09-04T01:52:09.080Z,6.65
2022-09-04T01:54:45.279Z,4.40
2022-09-04T01:57:50.159Z,5.18
2022-09-04T02:00:22.836Z,8.63
2022-09-04T02:03:10.281Z,5.80
2022-09-04T02:05:55.655Z,7.05
2022-09-04T02:08:50.387Z,6.68
2022-09-04T02:11:28.207Z,9.38
2022-09-04T02:14:06.814Z,7.57
2022-09-04T02:16:46.365Z,8.10
2022-09-04T02:19:36.561Z,8.68
2022-09-04T02:22:40.004Z,8.95
2022-09-04T02:25:42.515Z,9.32
2022-09-04T02:28:33.703Z,9.00
2022-09-04T02:31:29.723Z,11.35
2022-09-04T02:34:08.012Z,12.70
2022-09-04T02:37:12.316Z,9.65
2022-09-04T02:39:52.674Z,12.82
2022-09-04T02:42:32.383Z,12.30
2022-09-04T02:45:14.467Z,13.57
2022-09-04T02:48:16.851Z,6.88
2022-09-04T02:51:17.644Z,12.48
2022-09-04T02:53:51.804Z,14.00
2022-09-04T02:56:37.790Z,15.20
2022-09-04T02:59:28.628Z,17.42
2022-09-04T03:02:00.613Z,16.02
2022-09-04T03:04:50.022Z,12.77
2022-09-04T03:07:56.650Z,12.95
2022-09-04T03:10:40.964Z,12.95
2022-09-04T03:13:32.715Z,14.15
2022-09-04T03:16:54.926Z,16.13
2022-09-04T03:19:53.756Z,14.82
2022-09-04T03:22:50.709Z,12.48
2022-09-04T03:25:29.884Z,13.05
2022-09-04T03:27:57.163Z,17.73
2022-09-04T03:30:25.617Z,13.25
2022-09-04T03:33:21.655Z,12.55
2022-09-04T03:36:14.391Z,12.18
2022-09-04T03:39:04.547Z,14.43
2022-09-04T03:41:54.667Z,13.27
2022-09-04T03:44:31.404Z,14.77
2022-09-04T03:47:01.460Z,14.75
2022-09-04T03:50:02.047Z,11.50
2022-09-04T03:53:00.217Z,12.18
2022-09-04T03:56:01.057Z,17.17
2022-09-04T03:58:46.407Z,14.40
2022-09-04T04:01:25.167Z,17.05
2022-09-04T04:04:16.780Z,11.27
2022-09-04T04:06:55.633Z,14.32
2022-09-04T04:09:57.156Z,13.05
2022-09-04T04:12:42.449Z,15.88
2022-09-04T04:15:18.410Z,12.45
2022-09-04T04:18:07.136Z,10.77
2022-09-04T04:20:38.291Z,12.88
2022-09-04T04:23:11.483Z,11.73
2022-09-04T04:26:08.561Z,11.55
2022-09-04T04:29:10.015Z,11.10
2022-09-04T04:32:25.652Z,12.23
2022-09-04T04:35:17.539Z,11.55
2022-09-04T04:37:59.438Z,11.15
2022-09-04T04:40:57.456Z,15.45
2022-09-04T04:43:36.627Z,9.25
2022-09-04T04:46:16.857Z,13.95
2022-09-04T04:49:22.631Z,9.77
2022-09-04T04:51:52.628Z,11.40
2022-09-04T04:54:33.557Z,7.63
2022-09-04T04:57:35.795Z,11.77
2022-09-04T05:00:09.179Z,8.93
2022-09-04T05:02:51.817Z,10.05
2022-09-04T05:05:28.718Z,8.95
2022-09-04T05:08:37.150Z,8.85
2022-09-04T05:11:41.251Z,6.95
2022-09-04T05:14:14.239Z,8.48
2022-09-04T05:17:20.619Z,11.13
2022-09-04T05:20:10.944Z,10.88
2022-09-04T05:22:49.510Z,10.20
2022-09-04T05:25:58.134Z,9.77
2022-09-04T05:28:44.654Z,10.32
2022-09-04T05:31:49.285Z,9.23
2022-09-04T05:34:57.788Z,5.05
2022-09-04T05:38:11.775Z,6.47
2022-09-04T05:40:59.230Z,6.72
2022-09-04T05:43:51.683Z,7.68
2022-09-04T05:46:52.819Z,6.30
2022-09-04T05:49:44.459Z,9.75
2022-09-04T05:52:44.742Z,5.85
2022-09-04T05:55:33.707Z,10.00
2022-09-04T05:58:40.916Z,6.82
2022-09-04T06:01:08.189Z,7.18
2022-09-04T06:04:11.839Z,8.38
2022-09-04T06:06:46.209Z,9.68
2022-09-04T06:09:23.314Z,5.60
2022-09-04T06:12:05.951Z,6.35
2022-09-04T06:15:04.861Z,4.97
2022-09-04T06:17:51.834Z,5.53
2022-09-04T06:20:30.990Z,5.97
2022-09-04T06:23:13.507Z,6.80
2022-09-04T06:25:46.467Z,6.55
2022-09-04T06:28:37.774Z,9.25
2022-09-04T06:31:33.894Z,4.13
2022-09-04T06:34:22.179Z,4.47
2022-09-04T06:37:06.678Z,5.00
2022-09-04T06:39:37.019Z,2.35
2022-09-04T06:42:15.959Z,6.18
2022-09-04T06:44:59.021Z,3.95
2022-09-04T06:47:41.396Z,4.45
2022-09-04T06:50:41.232Z,2.17
2022-09-04T06:53:31.281Z,6.95
2022-09-04T06:56:22.621Z,3.97
2022-09-04T06:59:14.326Z,4.97
2022-09-04T07:01:52.740Z,1.40
2022-09-04T07:04:59.724Z,4.63
2022-09-04T07:07:55.325Z,3.00
2022-09-04T07:10:32.481Z,5.82
2022-09-04T07:13:23.737Z,2.90
2022-09-04T07:15:57.348Z,3.67
2022-09-04T07:19:03.524Z,3.67
2022-09-04T07:21:51.477Z,7.38
2022-09-04T07:24:46.802Z,2.13
2022-09-04T07:30:13.061Z,0.77
2022-09-04T07:32:55.643Z,7.05
2022-09-04T07:35:44.616Z,6.72
2022-09-04T07:38:21.211Z,6.15
2022-09-04T07:41:20.061Z,0.75
2022-09-04T07:44:07.071Z,2.63
2022-09-04T07:47:00.266Z,3.42
2022-09-04T07:49:48.129Z,4.15
2022-09-04T07:52:32.691Z,2.95
2022-09-04T07:55:27.997Z,2.15
2022-09-04T08:00:26.906Z,4.30
2022-09-04T08:03:18.859Z,2.92
2022-09-04T08:06:19.431Z,4.50
2022-09-04T08:09:04.031Z,4.30
2022-09-04T08:11:47.235Z,5.70
2022-09-04T08:14:21.080Z,1.98
2022-09-04T08:16:53.288Z,2.40
2022-09-04T08:19:23.653Z,8.57
2022-09-04T08:21:53.181Z,6.80
2022-09-04T08:24:35.484Z,2.78
2022-09-04T08:27:21.249Z,1.27
2022-09-04T08:30:08.977Z,1.55
2022-09-04T08:33:00.309Z,5.43
2022-09-04T08:35:35.486Z,3.97
2022-09-04T08:38:24.756Z,3.97
2022-09-04T08:41:29.649Z,3.63
2022-09-04T08:44:11.799Z,3.10
2022-09-04T08:47:01.743Z,4.50
2022-09-04T08:50:08.586Z,4.57
2022-09-04T08:53:15.720Z,4.60
2022-09-04T08:56:24.064Z,7.15
2022-09-04T08:59:25.423Z,5.60
2022-09-04T09:02:08.727Z,3.40
2022-09-04T09:05:20.145Z,5.93
2022-09-04T09:08:02.155Z,4.30
2022-09-04T09:10:54.030Z,3.05
2022-09-04T09:13:42.760Z,4.53
2022-09-04T09:16:31.257Z,4.72
2022-09-04T09:19:17.042Z,4.22
2022-09-04T09:22:04.275Z,3.13
2022-09-04T09:24:46.507Z,3.45
2022-09-04T09:27:38.058Z,4.72
2022-09-04T09:30:22.078Z,2.85
2022-09-04T09:32:59.403Z,3.55
2022-09-04T09:35:51.705Z,5.63
2022-09-04T09:38:41.936Z,3.88
2022-09-04T09:41:46.811Z,8.35
2022-09-04T09:44:42.887Z,8.30
2022-09-04T09:47:13.156Z,4.45
2022-09-04T09:49:52.451Z,6.18
2022-09-04T09:53:00.841Z,6.28
2022-09-04T09:55:54.442Z,2.25
2022-09-04T09:58:39.850Z,9.27
2022-09-04T10:01:25.384Z,3.60
2022-09-04T10:04:28.523Z,5.50
2022-09-04T10:07:22.425Z,4.10
2022-09-04T10:09:49.626Z,4.68
2022-09-04T10:12:34.947Z,4.20
2022-09-04T10:15:07.926Z,4.32
2022-09-04T10:17:59.526Z,5.50
2022-09-04T10:20:38.891Z,1.95
2022-09-04T10:23:24.811Z,4.57
2022-09-04T10:26:14.632Z,7.03
2022-09-04T10:29:26.585Z,2.33
2022-09-04T10:32:35.388Z,2.80
2022-09-04T10:35:21.431Z,5.13
2022-09-04T10:38:11.751Z,2.45
2022-09-04T10:41:07.046Z,2.85
2022-09-04T10:43:45.270Z,3.95
2022-09-04T10:46:23.177Z,2.28
2022-09-04T10:49:18.623Z,5.45
2022-09-04T10:51:49.564Z,4.50
2022-09-04T10:54:45.148Z,3.83
2022-09-04T10:57:31.353Z,3.35
2022-09-04T11:00:05.495Z,2.83
2022-09-04T11:02:53.806Z,3.58
2022-09-04T11:05:48.572Z,4.18
2022-09-04T11:08:36.242Z,2.88
2022-09-04T11:11:25.718Z,3.45
2022-09-04T11:14:06.542Z,1.48
2022-09-04T11:17:07.934Z,1.10
2022-09-04T11:20:00.705Z,3.97
2022-09-04T11:22:59.575Z,1.33
2022-09-04T11:25:47.998Z,2.42
2022-09-04T11:29:11.039Z,6.85
2022-09-04T11:31:59.407Z,1.88
2022-09-04T11:35:01.043Z,6.72
2022-09-04T11:37:40.434Z,3.00
2022-09-04T11:40:38.683Z,4.35
2022-09-04T11:43:43.372Z,8.68
2022-09-04T11:46:41.656Z,3.77
2022-09-04T11:49:25.602Z,8.38
2022-09-04T11:52:10.806Z,9.97
2022-09-04T11:54:56.967Z,6.05
2022-09-04T11:57:58.061Z,5.85
2022-09-04T12:00:25.322Z,9.82
2022-09-04T12:03:30.542Z,5.13
2022-09-04T12:06:18.795Z,8.45
2022-09-04T12:09:00.710Z,4.80
2022-09-04T12:12:04.087Z,4.45
2022-09-04T12:15:08.741Z,8.75
2022-09-04T12:20:38.957Z,5.90
2022-09-04T12:23:31.450Z,2.72
2022-09-04T12:26:55.105Z,4.75
2022-09-04T12:29:27.207Z,12.68
2022-09-04T12:32:28.689Z,5.82
2022-09-04T12:35:18.228Z,1.70
2022-09-04T12:37:58.371Z,4.32
2022-09-04T12:40:43.825Z,6.60
2022-09-04T12:43:29.174Z,2.90
2022-09-04T12:46:14.954Z,4.05
2022-09-04T12:48:49.446Z,5.93
2022-09-04T12:54:12.761Z,6.32
2022-09-04T12:56:42.247Z,4.57
2022-09-04T12:59:30.072Z,6.82
2022-09-04T13:02:16.162Z,4.20
2022-09-04T13:05:10.849Z,3.58
2022-09-04T13:08:03.758Z,2.35
2022-09-04T13:10:43.406Z,4.60
2022-09-04T13:13:43.791Z,3.90
2022-09-04T13:16:33.346Z,7.78
2022-09-04T13:19:28.731Z,2.83
2022-09-04T13:22:20.073Z,4.72
2022-09-04T13:25:19.807Z,4.38
2022-09-04T13:27:57.794Z,2.40
2022-09-04T13:30:26.625Z,2.20
2022-09-04T13:33:39.971Z,7.15
2022-09-04T13:36:28.422Z,6.47
2022-09-04T13:39:10.824Z,5.15
2022-09-04T13:42:16.225Z,6.22
2022-09-04T13:48:02.090Z,5.40
2022-09-04T13:50:48.504Z,3.40
2022-09-04T13:53:33.143Z,6.20
2022-09-04T13:56:06.776Z,5.32
2022-09-04T13:58:45.475Z,4.67
2022-09-04T14:01:21.726Z,5.13
2022-09-04T14:03:57.791Z,8.32
2022-09-04T14:06:27.591Z,6.18
2022-09-04T14:09:04.313Z,3.33
2022-09-04T14:11:54.652Z,5.60
2022-09-04T14:14:59.841Z,3.70
2022-09-04T14:18:01.030Z,4.22
2022-09-04T14:20:46.439Z,3.95
2022-09-04T14:23:26.223Z,3.33
2022-09-04T14:25:58.234Z,6.45
2022-09-04T14:28:49.977Z,5.03
2022-09-04T14:31:42.122Z,4.13
2022-09-04T14:34:21.014Z,2.67
2022-09-04T14:37:17.431Z,6.10
2022-09-04T14:40:04.922Z,4.47
2022-09-04T14:42:42.800Z,7.32
2022-09-04T14:45:30.115Z,4.90
2022-09-04T14:48:03.747Z,3.63
2022-09-04T14:50:45.162Z,3.15
2022-09-04T14:53:33.983Z,6.53
2022-09-04T14:56:09.936Z,4.65
2022-09-04T14:58:50.126Z,6.28
2022-09-04T15:01:26.234Z,1.58
2022-09-04T15:04:06.530Z,4.13
2022-09-04T15:07:10.352Z,5.18
2022-09-04T15:09:46.897Z,4.18
2022-09-04T15:12:32.622Z,4.15
2022-09-04T15:15:27.385Z,3.60
2022-09-04T15:18:05.644Z,6.53
2022-09-04T15:20:40.571Z,3.17
2022-09-04T15:23:23.553Z,1.88
2022-09-04T15:25:59.498Z,6.13
2022-09-04T15:28:38.665Z,3.33
2022-09-04T15:31:27.823Z,3.42
2022-09-04T15:34:02.775Z,4.65
2022-09-04T15:36:31.378Z,2.05
2022-09-04T15:39:01.688Z,3.72
2022-09-04T15:41:50.044Z,4.57
2022-09-04T15:44:29.226Z,3.00
2022-09-04T15:47:35.098Z,7.10
2022-09-04T15:50:20.993Z,4.88
2022-09-04T15:53:26.948Z,3.55
2022-09-04T15:56:09.623Z,1.35
2022-09-04T15:58:46.314Z,2.92
2022-09-04T16:01:19.250Z,1.58
2022-09-04T16:04:14.495Z,3.05
2022-09-04T16:06:48.111Z,3.13
2022-09-04T16:09:18.351Z,3.83
2022-09-04T16:11:56.038Z,8.45
2022-09-04T16:14:39.958Z,8.68
2022-09-04T16:17:20.337Z,6.10
2022-09-04T16:19:54.081Z,5.40
2022-09-04T16:22:44.029Z,6.47
2022-09-04T16:25:24.534Z,2.80
2022-09-04T16:28:08.116Z,4.05
2022-09-04T16:30:41.659Z,11.15
2022-09-04T16:33:36.869Z,4.43
2022-09-04T16:38:57.427Z,5.70
2022-09-04T16:41:29.238Z,9.20
2022-09-04T16:44:14.928Z,4.55
2022-09-04T16:47:06.134Z,5.00
2022-09-04T16:49:51.431Z,4.35
2022-09-04T16:52:36.785Z,3.53
2022-09-04T16:55:25.025Z,4.88
2022-09-04T16:58:02.606Z,6.35
2022-09-04T17:00:36.232Z,7.38
2022-09-04T17:03:17.676Z,3.00
2022-09-04T17:05:59.733Z,6.30
2022-09-04T17:08:40.167Z,4.32
2022-09-04T17:11:31.780Z,4.90
2022-09-04T17:14:13.667Z,4.60
2022-09-04T17:17:00.047Z,4.40
2022-09-04T17:19:28.222Z,5.32
2022-09-04T17:28:51.219Z,3.45
2022-09-04T17:29:02.193Z,3.88
2022-09-04T17:29:08.244Z,2.40
2022-09-04T17:31:49.404Z,6.47
2022-09-04T17:40:41.060Z,4.55
2022-09-04T17:40:55.856Z,1.83
2022-09-04T17:41:38.292Z,3.55
2022-09-04T17:44:02.005Z,4.55
2022-09-04T17:46:29.990Z,8.10
2022-09-04T17:48:58.135Z,5.45
2022-09-04T17:51:29.435Z,4.47
2022-09-04T17:54:00.347Z,0.85
2022-09-04T17:56:43.749Z,3.92
2022-09-04T17:59:31.445Z,4.22
2022-09-04T18:02:48.457Z,5.13
2022-09-04T18:05:22.202Z,6.85
2022-09-04T18:08:08.356Z,6.80
2022-09-04T18:10:59.564Z,3.55
2022-09-04T18:13:54.963Z,2.30
2022-09-04T18:16:42.435Z,2.45
2022-09-04T18:19:45.626Z,2.40
2022-09-04T18:22:50.712Z,3.33
2022-09-04T18:25:25.750Z,5.97
2022-09-04T18:28:12.393Z,4.05
2022-09-04T18:37:12.023Z,5.55
2022-09-04T18:37:16.829Z,2.45
2022-09-04T18:37:46.627Z,3.13
2022-09-04T18:40:14.385Z,2.28
2022-09-04T18:48:19.160Z,7.25
2022-09-04T18:50:36.091Z,2.13
2022-09-04T18:50:43.933Z,1.95
2022-09-04T18:51:31.387Z,3.53
2022-09-04T18:54:25.456Z,8.10
2022-09-04T18:57:06.550Z,4.28
2022-09-04T18:59:43.163Z,3.33
2022-09-04T19:02:20.326Z,1.30
2022-09-04T19:04:47.785Z,4.97
2022-09-04T19:07:35.325Z,4.57
2022-09-04T19:10:22.830Z,8.20
2022-09-04T19:12:50.198Z,1.35
2022-09-04T19:15:36.071Z,1.95
2022-09-04T19:18:30.369Z,2.28
2022-09-04T19:21:14.273Z,3.03
2022-09-04T19:23:58.826Z,3.13
2022-09-04T19:27:01.889Z,4.88
2022-09-04T19:29:45.331Z,3.38
2022-09-04T19:32:18.546Z,2.85
2022-09-04T19:35:30.211Z,8.50
2022-09-04T19:43:52.621Z,4.10
2022-09-04T19:45:57.588Z,5.07
2022-09-04T19:45:59.684Z,3.63
2022-09-04T19:47:38.498Z,3.75
2022-09-04T19:53:19.282Z,3.40
2022-09-04T19:53:32.376Z,1.48
2022-09-04T19:56:12.213Z,3.33
2022-09-04T19:58:52.541Z,1.50
2022-09-04T20:01:40.768Z,2.05
2022-09-04T20:04:24.422Z,2.35
2022-09-04T20:06:59.406Z,4.07
2022-09-04T20:09:44.720Z,4.97
2022-09-04T20:12:42.837Z,2.75
2022-09-04T20:15:18.287Z,2.80
2022-09-04T20:18:04.583Z,2.97
2022-09-04T20:20:58.474Z,2.58
2022-09-04T20:23:46.021Z,1.40
2022-09-04T20:26:26.994Z,3.10
2022-09-04T20:28:57.327Z,4.10
2022-09-04T20:31:35.901Z,5.43
2022-09-04T20:34:34.777Z,1.30
2022-09-04T20:37:22.609Z,1.05
2022-09-04T20:40:12.059Z,2.45
2022-09-04T20:43:02.322Z,2.92
2022-09-04T20:51:17.543Z,3.30
2022-09-04T20:52:58.050Z,4.30
2022-09-04T20:52:59.188Z,1.85
2022-09-04T20:54:56.369Z,3.80
2022-09-04T21:01:45.870Z,1.65
2022-09-04T21:03:11.479Z,3.95
2022-09-04T21:04:04.675Z,3.72
2022-09-04T21:06:40.934Z,2.63
2022-09-04T21:09:34.323Z,2.30
2022-09-04T21:12:29.209Z,2.03
2022-09-04T21:15:10.042Z,1.85
2022-09-04T21:17:56.972Z,2.65
2022-09-04T21:20:59.160Z,3.30
2022-09-04T21:24:03.004Z,1.92
2022-09-04T21:27:01.994Z,5.38
2022-09-04T21:29:32.453Z,1.88
2022-09-04T21:32:18.819Z,3.85
2022-09-04T21:35:04.670Z,3.53
2022-09-04T21:38:10.099Z,3.47
2022-09-04T21:41:14.931Z,3.92
2022-09-04T21:44:02.530Z,2.67
2022-09-04T21:46:57.921Z,1.83
2022-09-04T21:49:44.720Z,5.93
2022-09-04T21:52:45.951Z,2.03
2022-09-04T22:00:11.123Z,3.28
2022-09-04T22:02:27.351Z,1.23
2022-09-04T22:02:42.252Z,2.65
2022-09-04T22:04:48.906Z,1.65
2022-09-04T22:13:26.607Z,2.83
2022-09-04T22:13:33.245Z,3.40
2022-09-04T22:14:03.162Z,3.15
2022-09-04T22:16:53.651Z,3.25
2022-09-04T22:19:29.955Z,0.52
2022-09-04T22:22:28.373Z,6.70
2022-09-04T22:25:45.731Z,4.43
2022-09-04T22:28:43.514Z,3.13
2022-09-04T22:31:24.461Z,3.55
2022-09-04T22:34:16.226Z,2.10
2022-09-04T22:37:20.919Z,2.75
2022-09-04T22:39:57.748Z,2.30
2022-09-04T22:42:58.903Z,3.72
2022-09-04T22:46:04.146Z,2.25
2022-09-04T22:49:12.991Z,2.90
2022-09-04T22:51:43.701Z,0.98
2022-09-04T22:54:47.792Z,2.45
2022-09-04T22:57:28.138Z,2.78
2022-09-04T22:59:55.345Z,2.17
2022-09-04T23:07:07.012Z,2.20
2022-09-04T23:13:49.426Z,1.35
2022-09-04T23:14:02.934Z,1.52
2022-09-04T23:15:47.697Z,4.65
2022-09-04T23:22:35.505Z,3.05
2022-09-04T23:26:45.850Z,3.47
2022-09-04T23:26:49.220Z,4.88
2022-09-04T23:28:28.486Z,1.63
2022-09-04T23:31:29.631Z,2.97
2022-09-04T23:34:54.606Z,2.78
2022-09-04T23:38:13.021Z,1.63
2022-09-04T23:40:45.120Z,0.38
2022-09-04T23:43:21.434Z,2.20
2022-09-04T23:46:01.815Z,2.33
2022-09-04T23:48:41.459Z,1.33
2022-09-04T23:51:27.842Z,2.88
2022-09-04T23:54:18.233Z,4.07
2022-09-04T23:57:26.109Z,4.57
